Time;durP1;ratioP1;P1;durP2;ratioP2;P2;SDS_P1;SDS_P2;PMS_P1;PMS_P2;Temp;Humidity;BMP_temperature;BMP_pressure;BME280_temperature;BME280_humidity;BME280_pressure;Samples;Min_cycle;Max_cycle;Signal;HPM_P1;HPM_P2
2023/07/09 00:01:42;;;;;;;5.70;4.38;;;26.30;61.30;;;;;;5058393;28;20497;-67
2023/07/09 00:04:11;;;;;;;6.93;4.65;;;26.40;61.20;;;;;;5053723;28;20029;-68
2023/07/09 00:06:38;;;;;;;5.78;4.15;;;26.30;61.10;;;;;;5056351;28;20465;-68
2023/07/09 00:09:04;;;;;;;5.68;4.07;;;26.30;61.10;;;;;;5038951;28;20053;-67
2023/07/09 00:11:30;;;;;;;5.35;4.50;;;26.30;61.20;;;;;;5039433;28;20020;-68
2023/07/09 00:13:56;;;;;;;5.70;4.00;;;26.30;61.20;;;;;;5052761;28;20043;-68
2023/07/09 00:16:25;;;;;;;7.50;4.57;;;26.30;61.30;;;;;;5063201;28;20021;-68
2023/07/09 00:18:51;;;;;;;5.90;4.50;;;26.20;61.60;;;;;;5052627;28;20020;-67
2023/07/09 00:21:18;;;;;;;6.20;4.43;;;26.10;61.70;;;;;;5049799;28;20096;-68
2023/07/09 00:23:44;;;;;;;6.55;4.30;;;26.20;61.70;;;;;;5048818;28;20034;-69
2023/07/09 00:26:13;;;;;;;6.55;4.47;;;26.20;61.50;;;;;;5060432;28;20086;-68
2023/07/09 00:28:39;;;;;;;6.32;4.10;;;26.20;61.50;;;;;;5057779;28;20029;-69
2023/07/09 00:31:07;;;;;;;8.00;4.43;;;26.20;61.60;;;;;;5050175;28;20029;-68
2023/07/09 00:33:33;;;;;;;5.35;4.30;;;26.10;61.80;;;;;;5056406;28;20032;-68
2023/07/09 00:35:59;;;;;;;5.97;4.55;;;26.10;61.90;;;;;;5046959;28;20553;-68
2023/07/09 00:38:26;;;;;;;6.88;4.40;;;26.10;62.00;;;;;;5039393;28;20136;-67
2023/07/09 00:41:17;;;;;;;7.20;4.18;;;26.00;62.40;;;;;;5056167;28;20021;-68
2023/07/09 00:43:43;;;;;;;5.93;4.30;;;26.00;62.30;;;;;;5051637;28;20083;-68
2023/07/09 00:46:27;;;;;;;6.78;4.05;;;26.00;62.20;;;;;;5054110;28;20072;-69
2023/07/09 00:49:05;;;;;;;5.60;3.85;;;26.00;62.20;;;;;;5051464;28;20108;-68
2023/07/09 00:51:41;;;;;;;6.28;3.83;;;26.00;61.90;;;;;;5051143;28;20426;-68
2023/07/09 00:54:20;;;;;;;5.68;3.85;;;26.00;61.70;;;;;;5050469;28;20056;-68
2023/07/09 00:56:51;;;;;;;6.57;3.75;;;25.90;61.70;;;;;;5036696;28;20029;-69
2023/07/09 00:59:21;;;;;;;5.07;3.60;;;25.90;62.20;;;;;;5055805;28;20025;-66
2023/07/09 01:01:47;;;;;;;5.57;4.10;;;25.80;62.40;;;;;;5045538;28;20017;-66
2023/07/09 01:04:12;;;;;;;6.20;4.25;;;25.80;62.70;;;;;;5045837;28;20040;-67
2023/07/09 01:06:43;;;;;;;4.85;3.83;;;25.70;62.80;;;;;;5061767;28;20103;-67
2023/07/09 01:09:10;;;;;;;5.00;3.67;;;25.70;63.00;;;;;;5049931;28;20443;-67
2023/07/09 01:11:37;;;;;;;5.82;4.00;;;25.70;63.00;;;;;;5056099;28;20045;-66
2023/07/09 01:14:06;;;;;;;5.45;4.15;;;25.70;63.00;;;;;;5049739;28;20033;-68
2023/07/09 01:16:41;;;;;;;5.47;3.72;;;25.70;63.20;;;;;;5026779;28;20032;-67
2023/07/09 01:19:07;;;;;;;4.82;3.53;;;25.70;63.50;;;;;;5048106;28;20021;-67
2023/07/09 01:21:33;;;;;;;5.85;3.72;;;25.60;63.60;;;;;;5055112;28;20017;-68
2023/07/09 01:24:10;;;;;;;6.22;3.90;;;25.60;63.70;;;;;;5051147;28;20108;-67
2023/07/09 01:26:38;;;;;;;5.28;3.88;;;25.60;63.70;;;;;;5053453;28;20425;-67
2023/07/09 01:29:04;;;;;;;5.40;3.75;;;25.50;63.80;;;;;;5054300;28;20111;-68
2023/07/09 01:31:29;;;;;;;5.50;3.97;;;25.50;64.00;;;;;;5056421;28;20057;-68
2023/07/09 01:33:55;;;;;;;5.93;3.85;;;25.50;64.10;;;;;;5054628;28;20090;-67
2023/07/09 01:36:24;;;;;;;5.03;3.70;;;25.50;64.20;;;;;;5050736;28;20060;-68
2023/07/09 01:38:51;;;;;;;6.00;4.00;;;25.50;64.30;;;;;;5056042;28;20032;-68
2023/07/09 01:41:19;;;;;;;6.25;4.00;;;25.50;64.30;;;;;;5046176;28;20104;-68
2023/07/09 01:43:45;;;;;;;5.30;3.80;;;25.40;64.30;;;;;;5051874;28;20070;-67
2023/07/09 01:46:12;;;;;;;6.70;4.20;;;25.40;64.30;;;;;;5048173;28;20025;-66
2023/07/09 01:48:42;;;;;;;5.35;3.78;;;25.30;64.20;;;;;;5053918;28;20053;-67
2023/07/09 01:51:14;;;;;;;5.25;3.80;;;25.40;64.20;;;;;;5048549;28;20715;-67
2023/07/09 01:53:40;;;;;;;4.93;3.17;;;25.30;64.10;;;;;;5052881;28;20480;-67
2023/07/09 01:56:10;;;;;;;6.60;3.90;;;25.30;64.10;;;;;;5062585;28;20032;-67
2023/07/09 01:58:36;;;;;;;5.68;3.58;;;25.30;64.10;;;;;;5058298;28;20044;-68
2023/07/09 02:01:02;;;;;;;5.82;3.72;;;25.30;64.10;;;;;;5047181;28;20098;-68
2023/07/09 02:03:28;;;;;;;6.20;3.63;;;25.30;64.00;;;;;;5048593;28;20100;-67
2023/07/09 02:05:54;;;;;;;5.63;3.75;;;25.30;64.00;;;;;;5054123;28;20021;-68
2023/07/09 02:08:20;;;;;;;6.70;3.80;;;25.20;63.70;;;;;;5042385;28;20033;-69
2023/07/09 02:10:48;;;;;;;6.30;4.05;;;25.20;63.30;;;;;;5056985;28;20052;-68
2023/07/09 02:13:14;;;;;;;5.40;3.90;;;25.20;63.20;;;;;;5055865;28;20028;-68
2023/07/09 02:15:43;;;;;;;6.10;3.95;;;25.20;63.10;;;;;;5051190;28;20039;-67
2023/07/09 02:18:12;;;;;;;5.30;4.03;;;25.10;63.10;;;;;;5049040;28;20039;-67
2023/07/09 02:20:38;;;;;;;8.05;3.78;;;25.10;63.10;;;;;;5057359;28;20107;-67
2023/07/09 02:23:05;;;;;;;4.75;3.40;;;25.00;63.30;;;;;;5047930;28;20049;-67
2023/07/09 02:25:31;;;;;;;4.70;3.53;;;25.10;63.70;;;;;;5049934;28;20025;-67
2023/07/09 02:27:56;;;;;;;5.15;3.60;;;25.00;63.80;;;;;;5049112;28;20391;-67
2023/07/09 02:30:22;;;;;;;4.47;3.42;;;25.00;63.90;;;;;;5050454;28;20391;-68
2023/07/09 02:32:48;;;;;;;4.80;3.58;;;25.00;63.90;;;;;;5034563;28;20024;-67
2023/07/09 02:35:13;;;;;;;4.70;3.50;;;25.00;63.80;;;;;;5054147;28;20047;-67
2023/07/09 02:37:39;;;;;;;5.88;3.63;;;25.00;64.00;;;;;;5051795;28;20021;-67
2023/07/09 02:40:05;;;;;;;7.22;3.90;;;25.00;64.20;;;;;;5051797;28;20033;-67
2023/07/09 02:42:31;;;;;;;4.85;3.67;;;24.90;64.20;;;;;;5044803;28;20055;-67
2023/07/09 02:44:56;;;;;;;5.63;3.83;;;24.90;64.30;;;;;;5047382;28;20057;-67
2023/07/09 02:47:22;;;;;;;6.53;4.25;;;24.90;64.40;;;;;;5046736;28;20483;-67
2023/07/09 02:49:47;;;;;;;6.93;4.13;;;24.80;64.40;;;;;;5049531;28;20024;-67
2023/07/09 02:52:13;;;;;;;7.55;4.18;;;24.80;64.50;;;;;;5051666;28;20032;-68
2023/07/09 02:54:39;;;;;;;6.82;4.43;;;24.80;64.50;;;;;;5055308;28;20450;-68
2023/07/09 02:57:06;;;;;;;5.85;4.20;;;24.80;64.40;;;;;;5056829;28;20029;-68
2023/07/09 02:59:32;;;;;;;5.78;4.00;;;24.80;64.40;;;;;;5058106;28;20530;-68
2023/07/09 03:01:59;;;;;;;6.72;4.40;;;24.70;64.40;;;;;;5052173;28;20027;-68
2023/07/09 03:04:25;;;;;;;7.43;4.45;;;24.70;64.40;;;;;;5054221;28;20047;-67
2023/07/09 03:06:51;;;;;;;7.40;5.07;;;24.70;64.30;;;;;;5047496;28;20033;-67
2023/07/09 03:09:17;;;;;;;10.38;4.90;;;24.70;64.40;;;;;;5046208;28;20029;-67
2023/07/09 03:11:42;;;;;;;7.57;5.10;;;24.70;64.20;;;;;;5048654;28;20032;-68
2023/07/09 03:14:08;;;;;;;7.25;4.65;;;24.70;64.10;;;;;;5028229;28;20029;-68
2023/07/09 03:16:34;;;;;;;8.75;5.80;;;24.80;64.10;;;;;;5045811;28;20021;-66
2023/07/09 03:19:00;;;;;;;8.68;5.55;;;24.80;64.00;;;;;;5054210;28;20113;-68
2023/07/09 03:21:27;;;;;;;11.25;7.90;;;24.80;63.80;;;;;;5057228;28;20036;-68
2023/07/09 03:23:54;;;;;;;9.68;7.10;;;24.80;63.70;;;;;;5048756;28;20021;-67
2023/07/09 03:26:20;;;;;;;8.88;6.35;;;24.90;63.80;;;;;;5033972;28;20041;-67
2023/07/09 03:28:46;;;;;;;10.15;6.43;;;24.90;63.80;;;;;;5047298;28;20028;-66
2023/07/09 03:31:11;;;;;;;9.02;6.45;;;24.90;63.70;;;;;;5056825;28;20123;-65
2023/07/09 03:33:37;;;;;;;9.32;7.13;;;24.90;63.80;;;;;;5051654;28;20541;-67
2023/07/09 03:36:06;;;;;;;11.43;7.70;;;24.90;63.80;;;;;;5048251;28;20036;-67
2023/07/09 03:38:32;;;;;;;11.57;7.80;;;24.90;63.80;;;;;;5045797;28;20025;-67
2023/07/09 03:40:58;;;;;;;10.25;6.47;;;24.90;63.90;;;;;;5060096;28;20439;-68
2023/07/09 03:43:24;;;;;;;10.00;6.63;;;24.90;64.00;;;;;;5053292;28;20031;-67
2023/07/09 03:45:51;;;;;;;12.82;6.13;;;24.90;64.20;;;;;;5048771;28;20025;-68
2023/07/09 03:48:18;;;;;;;7.07;5.25;;;24.90;64.20;;;;;;5035550;28;20108;-67
2023/07/09 03:50:45;;;;;;;8.27;6.30;;;24.90;64.30;;;;;;5053402;28;20096;-67
2023/07/09 03:53:11;;;;;;;9.95;5.75;;;24.90;64.40;;;;;;5052448;28;20039;-67
2023/07/09 03:55:37;;;;;;;8.38;5.47;;;24.80;64.40;;;;;;5056828;28;20071;-67
2023/07/09 03:58:04;;;;;;;6.68;5.40;;;24.80;64.60;;;;;;5057064;28;20021;-67
2023/07/09 04:00:30;;;;;;;7.43;5.03;;;24.80;64.80;;;;;;5057780;28;20431;-68
2023/07/09 04:02:56;;;;;;;6.85;5.35;;;24.80;64.90;;;;;;5050299;28;20021;-68
2023/07/09 04:05:26;;;;;;;7.38;5.97;;;24.90;65.00;;;;;;5051073;28;20029;-68
2023/07/09 04:07:52;;;;;;;7.47;5.32;;;24.90;64.90;;;;;;5043093;28;20101;-68
2023/07/09 04:10:18;;;;;;;6.50;5.40;;;24.90;64.80;;;;;;5058148;28;20167;-67
2023/07/09 04:12:44;;;;;;;7.60;5.72;;;25.00;65.10;;;;;;5054260;28;20035;-68
2023/07/09 04:15:12;;;;;;;7.50;5.25;;;25.00;64.60;;;;;;5053955;28;20029;-68
2023/07/09 04:17:39;;;;;;;7.95;5.32;;;25.00;64.50;;;;;;5052833;28;20360;-69
2023/07/09 04:20:05;;;;;;;7.45;5.43;;;25.00;64.60;;;;;;5059630;28;20024;-68
2023/07/09 04:22:31;;;;;;;7.18;5.10;;;25.10;64.70;;;;;;5052337;28;20025;-68
2023/07/09 04:24:57;;;;;;;7.13;5.00;;;25.00;64.60;;;;;;5061259;28;20028;-69
2023/07/09 04:27:27;;;;;;;7.45;5.30;;;25.00;65.00;;;;;;5040761;28;20056;-69
2023/07/09 04:29:53;;;;;;;7.80;5.38;;;25.00;65.10;;;;;;5056460;28;20126;-67
2023/07/09 04:32:19;;;;;;;8.18;5.30;;;25.10;65.20;;;;;;5055494;28;20041;-67
2023/07/09 04:34:44;;;;;;;7.82;5.72;;;25.10;65.20;;;;;;5050284;28;20428;-67
2023/07/09 04:37:16;;;;;;;7.65;5.68;;;25.10;65.60;;;;;;5060832;28;20099;-67
2023/07/09 04:39:42;;;;;;;8.02;5.45;;;25.10;65.80;;;;;;5051458;28;20020;-68
2023/07/09 04:42:13;;;;;;;8.15;6.25;;;25.00;66.10;;;;;;5058342;28;20035;-68
2023/07/09 04:44:39;;;;;;;6.67;5.37;;;25.00;66.30;;;;;;5057185;28;20026;-68
2023/07/09 04:47:05;;;;;;;7.38;5.43;;;25.00;66.30;;;;;;5047727;28;20279;-67
2023/07/09 04:49:31;;;;;;;7.50;5.35;;;25.10;66.40;;;;;;5054294;28;20089;-67
2023/07/09 04:51:58;;;;;;;7.05;5.20;;;25.10;66.50;;;;;;5053791;28;20130;-67
2023/07/09 04:54:24;;;;;;;7.13;4.97;;;25.20;66.60;;;;;;5063381;28;20029;-67
2023/07/09 04:56:50;;;;;;;6.60;5.35;;;25.30;66.70;;;;;;5060127;28;20534;-68
2023/07/09 04:59:15;;;;;;;8.98;5.80;;;25.30;66.50;;;;;;5059598;28;20013;-68
2023/07/09 05:01:41;;;;;;;7.72;5.32;;;25.40;66.50;;;;;;5051405;28;20119;-68
2023/07/09 05:04:07;;;;;;;7.60;5.28;;;25.50;66.50;;;;;;5055343;28;20411;-69
2023/07/09 05:06:33;;;;;;;7.70;5.70;;;25.70;66.20;;;;;;5051579;28;20036;-69
2023/07/09 05:08:59;;;;;;;7.53;5.20;;;25.90;65.90;;;;;;5047468;28;20051;-68
2023/07/09 05:11:24;;;;;;;8.95;5.63;;;26.20;65.40;;;;;;5058543;28;20707;-69
2023/07/09 05:13:50;;;;;;;8.98;6.10;;;26.30;65.30;;;;;;5056830;28;20031;-69
2023/07/09 05:16:16;;;;;;;7.82;5.90;;;26.40;65.50;;;;;;5051045;28;20021;-69
2023/07/09 05:18:42;;;;;;;8.32;6.18;;;26.60;65.50;;;;;;5056474;28;20418;-68
2023/07/09 05:21:08;;;;;;;8.15;5.60;;;26.80;65.10;;;;;;5061330;28;20032;-67
2023/07/09 05:23:33;;;;;;;8.00;5.45;;;26.90;64.90;;;;;;5051993;28;20487;-68
2023/07/09 05:26:01;;;;;;;7.05;5.80;;;27.20;64.50;;;;;;5046899;28;20032;-68
2023/07/09 05:28:28;;;;;;;8.02;5.28;;;27.40;64.10;;;;;;5041731;28;20056;-68
2023/07/09 05:30:54;;;;;;;9.45;5.40;;;27.70;63.40;;;;;;5051882;28;20107;-68
2023/07/09 05:33:19;;;;;;;7.10;5.85;;;28.00;62.50;;;;;;5060662;28;20056;-68
2023/07/09 05:35:45;;;;;;;8.63;6.85;;;28.20;61.80;;;;;;5047513;28;20028;-68
2023/07/09 05:38:13;;;;;;;8.90;6.05;;;28.20;61.40;;;;;;5058308;28;20021;-68
2023/07/09 05:40:38;;;;;;;9.73;7.60;;;28.20;61.20;;;;;;5051420;28;20025;-68
2023/07/09 05:43:04;;;;;;;13.40;8.32;;;28.20;60.80;;;;;;5047352;28;20087;-67
2023/07/09 05:45:31;;;;;;;9.68;6.82;;;28.30;60.70;;;;;;5053846;28;20146;-68
2023/07/09 05:47:58;;;;;;;10.70;7.43;;;28.60;60.40;;;;;;5053145;28;20078;-68
2023/07/09 05:50:24;;;;;;;12.43;8.38;;;28.70;60.00;;;;;;5057673;28;20027;-68
2023/07/09 05:52:49;;;;;;;11.05;8.10;;;28.50;60.00;;;;;;5054307;28;20025;-68
2023/07/09 05:55:15;;;;;;;11.50;8.25;;;28.50;61.10;;;;;;5049944;28;20111;-68
2023/07/09 05:57:40;;;;;;;10.95;7.88;;;28.50;60.50;;;;;;5052411;28;20029;-68
2023/07/09 06:00:08;;;;;;;9.48;7.78;;;28.50;60.60;;;;;;5050237;28;20456;-68
2023/07/09 06:02:34;;;;;;;9.07;7.05;;;28.50;60.50;;;;;;5031139;28;20391;-68
2023/07/09 06:05:00;;;;;;;9.02;6.93;;;28.60;60.60;;;;;;5049368;28;20044;-68
2023/07/09 06:07:26;;;;;;;8.73;6.35;;;28.80;60.30;;;;;;5047435;28;20040;-69
2023/07/09 06:09:52;;;;;;;10.05;7.28;;;29.00;59.90;;;;;;5045581;28;20021;-69
2023/07/09 06:12:19;;;;;;;10.25;8.23;;;29.10;59.70;;;;;;5058703;28;20028;-67
2023/07/09 06:14:45;;;;;;;11.00;7.88;;;29.00;59.60;;;;;;5047664;28;20025;-67
2023/07/09 06:17:11;;;;;;;11.55;7.22;;;29.00;59.90;;;;;;5049968;28;20492;-66
2023/07/09 06:19:37;;;;;;;9.85;7.28;;;29.00;59.90;;;;;;5046249;28;20024;-68
2023/07/09 06:22:03;;;;;;;11.15;7.28;;;28.90;59.90;;;;;;5058164;28;20431;-68
2023/07/09 06:24:29;;;;;;;9.80;7.28;;;29.00;59.80;;;;;;5056785;28;20107;-68
2023/07/09 06:26:55;;;;;;;10.82;8.40;;;29.10;59.60;;;;;;5052040;28;20411;-68
2023/07/09 06:29:20;;;;;;;10.50;7.97;;;28.90;59.20;;;;;;5046905;28;20056;-69
2023/07/09 06:31:46;;;;;;;10.95;8.38;;;28.70;60.10;;;;;;5060040;28;20438;-68
2023/07/09 06:34:11;;;;;;;11.85;8.18;;;28.60;59.80;;;;;;5043103;28;20032;-68
2023/07/09 06:36:37;;;;;;;10.07;7.35;;;28.50;60.10;;;;;;5050681;28;20033;-67
2023/07/09 06:39:04;;;;;;;10.60;7.75;;;28.50;60.20;;;;;;5050688;28;20124;-69
2023/07/09 06:41:32;;;;;;;11.75;8.05;;;28.70;60.30;;;;;;5049439;28;20632;-69
2023/07/09 06:43:58;;;;;;;10.25;7.60;;;28.70;60.40;;;;;;5045916;28;20028;-68
2023/07/09 06:46:23;;;;;;;12.43;8.82;;;28.70;60.50;;;;;;5047448;28;20079;-68
2023/07/09 06:48:49;;;;;;;12.48;7.82;;;28.60;60.60;;;;;;5054997;28;20021;-69
2023/07/09 06:51:15;;;;;;;11.27;7.68;;;28.60;60.90;;;;;;5046989;28;20020;-68
2023/07/09 06:53:42;;;;;;;9.98;7.97;;;28.70;61.10;;;;;;5032767;28;20033;-68
2023/07/09 06:56:08;;;;;;;11.73;7.78;;;28.80;60.70;;;;;;5049249;28;20032;-69
2023/07/09 06:58:36;;;;;;;9.75;7.22;;;28.70;60.90;;;;;;5032215;28;20013;-69
2023/07/09 07:01:04;;;;;;;10.60;7.68;;;28.80;61.00;;;;;;5053372;28;20025;-69
2023/07/09 07:03:32;;;;;;;8.75;6.47;;;28.90;60.70;;;;;;5048788;28;20028;-68
2023/07/09 07:05:58;;;;;;;8.50;6.68;;;29.10;60.40;;;;;;5044874;28;20066;-69
2023/07/09 07:08:25;;;;;;;8.73;6.65;;;29.40;60.10;;;;;;5053598;28;20028;-69
2023/07/09 07:11:02;;;;;;;9.82;7.10;;;29.50;59.50;;;;;;5057731;28;20066;-69
2023/07/09 07:13:38;;;;;;;10.30;7.43;;;29.60;58.90;;;;;;5050512;28;20477;-69
2023/07/09 07:16:07;;;;;;;8.93;7.05;;;29.60;58.80;;;;;;5046554;28;20029;-69
2023/07/09 07:18:32;;;;;;;11.65;7.45;;;29.70;58.70;;;;;;5065866;28;20078;-69
2023/07/09 07:20:58;;;;;;;8.13;6.60;;;29.70;58.60;;;;;;5056102;28;20388;-69
2023/07/09 07:23:24;;;;;;;9.25;6.20;;;29.70;58.90;;;;;;5053182;28;20032;-69
2023/07/09 07:25:50;;;;;;;8.50;5.78;;;29.90;58.80;;;;;;5049751;28;20040;-69
2023/07/09 07:28:16;;;;;;;11.60;7.07;;;30.10;58.50;;;;;;5051854;28;20107;-69
2023/07/09 07:30:42;;;;;;;10.25;7.13;;;30.30;58.00;;;;;;5050155;28;20040;-70
2023/07/09 07:33:08;;;;;;;10.57;7.07;;;30.20;57.90;;;;;;5045218;28;20032;-69
2023/07/09 07:35:34;;;;;;;9.68;7.18;;;30.20;58.30;;;;;;5049424;28;20113;-69
2023/07/09 07:37:59;;;;;;;9.27;6.78;;;30.30;58.30;;;;;;5046439;28;20035;-69
2023/07/09 07:40:25;;;;;;;10.80;6.90;;;30.40;58.00;;;;;;5049718;28;20025;-69
2023/07/09 07:42:51;;;;;;;10.10;6.50;;;30.60;57.60;;;;;;5055841;28;20078;-69
2023/07/09 07:45:16;;;;;;;9.13;6.47;;;30.70;57.30;;;;;;5050121;28;20025;-69
2023/07/09 07:47:43;;;;;;;10.45;6.20;;;30.70;56.70;;;;;;5051346;28;20518;-70
2023/07/09 07:50:09;;;;;;;9.70;6.65;;;30.90;56.50;;;;;;5056870;28;20033;-69
2023/07/09 07:52:37;;;;;;;10.02;6.72;;;30.90;57.10;;;;;;5048024;28;20083;-69
2023/07/09 07:55:07;;;;;;;7.85;6.32;;;30.90;56.30;;;;;;5053061;28;20029;-69
2023/07/09 07:57:33;;;;;;;7.63;5.55;;;30.90;56.40;;;;;;5052256;28;20066;-69
2023/07/09 07:59:59;;;;;;;9.23;6.10;;;31.10;56.40;;;;;;5069404;28;20020;-70
2023/07/09 08:02:24;;;;;;;8.75;5.50;;;31.20;55.70;;;;;;5050527;28;20026;-69
2023/07/09 08:04:50;;;;;;;8.50;5.28;;;31.30;55.40;;;;;;5052567;28;20028;-69
2023/07/09 08:07:18;;;;;;;10.70;5.97;;;31.50;55.30;;;;;;5051012;28;20033;-69
2023/07/09 08:09:44;;;;;;;8.45;6.10;;;31.50;55.00;;;;;;5031483;28;20147;-69
2023/07/09 08:12:11;;;;;;;9.40;5.80;;;31.60;54.70;;;;;;5050029;28;20029;-69
2023/07/09 08:14:38;;;;;;;8.40;6.50;;;31.60;54.70;;;;;;5056678;28;20025;-69
2023/07/09 08:17:04;;;;;;;7.72;5.65;;;31.50;54.70;;;;;;5050791;28;20025;-69
2023/07/09 08:19:31;;;;;;;7.00;5.38;;;31.50;55.10;;;;;;5060000;28;20032;-69
2023/07/09 08:21:56;;;;;;;8.68;6.53;;;31.70;54.60;;;;;;5034644;28;20099;-69
2023/07/09 08:24:22;;;;;;;9.57;6.40;;;31.70;54.10;;;;;;5053105;28;20098;-70
2023/07/09 08:26:48;;;;;;;9.85;6.00;;;31.80;54.20;;;;;;5058407;28;20029;-69
2023/07/09 08:29:13;;;;;;;9.57;6.05;;;31.90;54.10;;;;;;5062936;28;20060;-69
2023/07/09 08:31:41;;;;;;;8.65;6.07;;;32.00;54.40;;;;;;5059228;28;20545;-70
2023/07/09 08:34:07;;;;;;;8.57;6.03;;;32.00;54.40;;;;;;5054734;28;20017;-70
2023/07/09 08:36:34;;;;;;;7.93;6.03;;;32.20;54.60;;;;;;5052402;28;20044;-70
2023/07/09 08:39:02;;;;;;;8.35;6.30;;;32.20;54.30;;;;;;5062448;28;20442;-70
2023/07/09 08:41:44;;;;;;;11.57;6.45;;;32.20;54.30;;;;;;5051974;28;20025;-70
2023/07/09 08:44:33;;;;;;;8.70;5.45;;;32.00;53.20;;;;;;5052410;28;20064;-69
2023/07/09 08:47:03;;;;;;;10.20;6.10;;;32.10;53.70;;;;;;5049315;28;20048;-70
2023/07/09 08:49:38;;;;;;;11.02;6.90;;;32.10;53.60;;;;;;5050416;28;20029;-69
2023/07/09 08:52:25;;;;;;;11.35;6.13;;;32.20;53.60;;;;;;5049443;28;20053;-69
2023/07/09 08:54:53;;;;;;;8.88;5.78;;;32.30;53.60;;;;;;5051113;28;20033;-69
2023/07/09 08:57:28;;;;;;;10.45;6.88;;;32.40;53.40;;;;;;5053049;28;20017;-69
2023/07/09 09:00:07;;;;;;;8.73;6.10;;;32.50;53.40;;;;;;5050690;28;20029;-69
2023/07/09 09:02:36;;;;;;;6.68;5.30;;;32.50;53.80;;;;;;5049312;28;20084;-70
2023/07/09 09:05:06;;;;;;;9.25;6.35;;;32.60;53.90;;;;;;5048645;28;20032;-69
2023/07/09 09:07:41;;;;;;;7.60;5.38;;;32.60;53.90;;;;;;5052805;28;20037;-70
2023/07/09 09:10:20;;;;;;;8.30;6.25;;;32.70;53.90;;;;;;5051270;28;20028;-69
2023/07/09 09:13:09;;;;;;;8.68;6.00;;;32.80;53.50;;;;;;5049877;28;20024;-70
2023/07/09 09:15:39;;;;;;;8.18;5.90;;;32.90;53.70;;;;;;5054273;28;20021;-70
2023/07/09 09:18:28;;;;;;;8.55;5.93;;;32.90;53.80;;;;;;5050409;28;20450;-70
2023/07/09 09:21:17;;;;;;;10.27;6.70;;;32.90;53.40;;;;;;5051062;28;20028;-70
2023/07/09 09:23:53;;;;;;;10.23;6.30;;;32.80;53.50;;;;;;5030434;28;20028;-69
2023/07/09 09:26:32;;;;;;;8.05;5.40;;;32.60;53.90;;;;;;5049963;28;20044;-70
2023/07/09 09:28:58;;;;;;;8.38;5.90;;;32.80;54.30;;;;;;5053438;28;20053;-70
2023/07/09 09:31:26;;;;;;;8.10;5.68;;;32.80;54.20;;;;;;5055003;28;21250;-70
2023/07/09 09:33:52;;;;;;;8.23;6.32;;;32.80;54.20;;;;;;5052391;28;20031;-70
2023/07/09 09:36:21;;;;;;;7.82;5.47;;;32.80;54.20;;;;;;5033638;28;20024;-71
2023/07/09 09:38:50;;;;;;;9.15;5.72;;;33.00;54.00;;;;;;5052480;28;20498;-70
2023/07/09 09:41:21;;;;;;;7.57;4.90;;;33.20;53.00;;;;;;5050751;28;20522;-70
2023/07/09 09:43:49;;;;;;;6.82;4.85;;;33.40;52.80;;;;;;5048450;28;20021;-70
2023/07/09 09:46:27;;;;;;;8.30;5.13;;;33.60;52.20;;;;;;5048163;28;20071;-70
2023/07/09 09:49:00;;;;;;;6.00;5.20;;;33.60;50.80;;;;;;5052762;28;20513;-70
2023/07/09 09:51:27;;;;;;;6.70;5.40;;;33.70;50.50;;;;;;5049623;28;20031;-71
2023/07/09 09:54:00;;;;;;;7.78;5.40;;;33.70;50.20;;;;;;5048973;28;20021;-70
2023/07/09 09:56:29;;;;;;;7.20;5.13;;;33.60;49.60;;;;;;5052001;28;20029;-70
2023/07/09 09:58:56;;;;;;;7.82;5.38;;;33.80;50.00;;;;;;5049517;28;20044;-70
2023/07/09 10:01:29;;;;;;;7.15;4.90;;;33.90;49.50;;;;;;5043945;28;20832;-70
2023/07/09 10:03:57;;;;;;;7.28;4.85;;;33.80;49.60;;;;;;5044931;28;20032;-70
2023/07/09 10:06:32;;;;;;;7.45;5.00;;;33.80;49.70;;;;;;5044152;28;20044;-67
2023/07/09 10:09:06;;;;;;;9.77;6.10;;;33.90;49.90;;;;;;5045089;28;20021;-70
2023/07/09 10:11:38;;;;;;;6.65;5.30;;;33.70;49.50;;;;;;5044127;28;20078;-70
2023/07/09 10:14:22;;;;;;;7.25;5.30;;;33.70;49.90;;;;;;5059518;28;20037;-70
2023/07/09 10:16:56;;;;;;;10.00;5.35;;;33.90;50.00;;;;;;5043649;28;20408;-70
2023/07/09 10:19:28;;;;;;;5.18;4.60;;;34.00;49.60;;;;;;5044733;28;20471;-70
2023/07/09 10:22:12;;;;;;;6.10;4.40;;;34.20;49.80;;;;;;5047380;28;20472;-70
2023/07/09 10:24:44;;;;;;;8.07;4.80;;;34.40;49.20;;;;;;5047715;28;20098;-70
2023/07/09 10:27:22;;;;;;;5.50;4.13;;;34.50;48.10;;;;;;5046224;28;20029;-70
2023/07/09 10:30:12;;;;;;;7.07;4.30;;;34.60;46.70;;;;;;5047918;28;20396;-70
2023/07/09 10:32:55;;;;;;;5.25;4.07;;;34.60;46.10;;;;;;5044285;28;20029;-70
2023/07/09 10:35:29;;;;;;;6.70;3.90;;;34.50;46.10;;;;;;5047655;28;20086;-70
2023/07/09 10:37:55;;;;;;;6.30;4.45;;;34.60;46.10;;;;;;5046422;28;20021;-70
2023/07/09 10:40:46;;;;;;;6.32;4.28;;;34.50;45.20;;;;;;5050544;28;20115;-70
2023/07/09 10:43:16;;;;;;;;;;;34.40;45.80;;;;;;5047858;28;20032;-70
2023/07/09 10:45:52;;;;;;;8.85;4.22;;;34.60;46.00;;;;;;5061751;28;19928;-70
2023/07/09 10:48:35;;;;;;;7.18;4.47;;;34.60;45.50;;;;;;5046274;28;20228;-68
2023/07/09 10:51:02;;;;;;;5.90;4.05;;;34.60;44.90;;;;;;5045429;28;20033;-68
2023/07/09 10:53:44;;;;;;;7.72;4.95;;;34.60;45.10;;;;;;5044712;28;20043;-68
2023/07/09 10:56:14;;;;;;;9.32;4.40;;;34.50;45.10;;;;;;5025116;28;20033;-69
2023/07/09 10:59:06;;;;;;;6.20;4.43;;;34.40;45.70;;;;;;5044240;28;20356;-69
2023/07/09 11:01:37;;;;;;;6.90;4.25;;;34.60;45.90;;;;;;5046176;28;20021;-69
2023/07/09 11:04:09;;;;;;;5.47;3.70;;;34.60;45.10;;;;;;5045604;28;20056;-69
2023/07/09 11:06:43;;;;;;;4.15;3.28;;;34.70;45.10;;;;;;5048445;28;20095;-69
2023/07/09 11:09:34;;;;;;;6.28;3.35;;;35.00;44.90;;;;;;5046653;28;20037;-69
2023/07/09 11:12:12;;;;;;;;;;;35.30;44.10;;;;;;5042686;28;20033;-69
2023/07/09 11:15:02;;;;;;;7.00;3.53;;;35.40;44.10;;;;;;5043371;28;19913;-69
2023/07/09 11:17:28;;;;;;;4.85;3.53;;;35.60;43.80;;;;;;5030894;28;20112;-69
2023/07/09 11:20:00;;;;;;;4.60;3.60;;;35.70;43.70;;;;;;5045408;28;20100;-68
2023/07/09 11:22:40;;;;;;;6.70;3.90;;;35.90;43.40;;;;;;5050161;28;20078;-68
2023/07/09 11:25:10;;;;;;;4.93;3.53;;;36.00;43.30;;;;;;5044056;28;20060;-69
2023/07/09 11:27:56;;;;;;;8.77;3.83;;;36.20;43.00;;;;;;5045585;28;20323;-69
2023/07/09 11:30:25;;;;;;;7.45;4.00;;;36.00;42.30;;;;;;5044464;28;20131;-69
2023/07/09 11:33:02;;;;;;;6.18;4.03;;;35.90;42.30;;;;;;5044166;28;20035;-69
2023/07/09 11:35:42;;;;;;;6.22;3.95;;;35.70;42.50;;;;;;5028652;28;20031;-69
2023/07/09 11:38:15;;;;;;;7.13;4.23;;;35.80;43.00;;;;;;5044859;28;20365;-71
2023/07/09 11:40:47;;;;;;;5.47;3.28;;;35.80;42.60;;;;;;5045258;28;20025;-69
2023/07/09 11:43:33;;;;;;;7.55;4.32;;;35.90;42.90;;;;;;5041807;28;20017;-69
2023/07/09 11:46:13;;;;;;;6.10;3.95;;;35.70;42.00;;;;;;5046731;28;20028;-68
2023/07/09 11:48:40;;;;;;;5.33;3.73;;;35.60;41.90;;;;;;5029443;28;20047;-69
2023/07/09 11:51:15;;;;;;;8.10;4.30;;;35.60;42.40;;;;;;5048529;28;20512;-71
2023/07/09 11:53:45;;;;;;;5.80;3.38;;;35.60;42.10;;;;;;5046995;28;20586;-69
2023/07/09 11:56:11;;;;;;;6.60;3.38;;;35.80;42.40;;;;;;5047807;28;20072;-69
2023/07/09 11:58:57;;;;;;;5.07;3.60;;;35.90;41.90;;;;;;5046419;28;20060;-70
2023/07/09 12:01:34;;;;;;;6.22;3.30;;;36.10;41.90;;;;;;5047696;28;20147;-70
2023/07/09 12:03:59;;;;;;;3.78;3.10;;;36.30;41.50;;;;;;5046316;28;20029;-68
2023/07/09 12:06:31;;;;;;;4.55;3.40;;;36.40;41.40;;;;;;5048614;28;20229;-69
2023/07/09 12:08:57;;;;;;;4.70;3.13;;;36.60;41.60;;;;;;5046899;28;20037;-69
2023/07/09 12:11:31;;;;;;;5.78;3.50;;;36.80;41.80;;;;;;5052554;28;20021;-69
2023/07/09 12:14:11;;;;;;;7.38;4.15;;;36.80;41.40;;;;;;5046256;28;20043;-69
2023/07/09 12:16:40;;;;;;;6.45;3.60;;;36.50;41.30;;;;;;5047423;28;20009;-68
2023/07/09 12:19:06;;;;;;;4.13;3.40;;;36.50;41.60;;;;;;5048189;28;20029;-69
2023/07/09 12:21:37;;;;;;;5.90;3.38;;;36.50;41.80;;;;;;5047800;28;20025;-66
2023/07/09 12:24:13;;;;;;;6.00;4.28;;;36.70;42.00;;;;;;5050034;28;20028;-69
2023/07/09 12:26:38;;;;;;;7.32;4.32;;;36.70;42.50;;;;;;5048671;28;20021;-69
2023/07/09 12:29:08;;;;;;;6.20;3.97;;;36.50;41.90;;;;;;5027727;28;20028;-67
2023/07/09 12:31:33;;;;;;;5.38;3.95;;;36.40;42.30;;;;;;5046818;28;20369;-66
2023/07/09 12:33:59;;;;;;;6.97;4.10;;;36.50;42.20;;;;;;5027466;28;20126;-68
2023/07/09 12:36:26;;;;;;;7.80;4.20;;;36.40;42.30;;;;;;5046736;28;20021;-69
2023/07/09 12:38:59;;;;;;;5.68;3.60;;;36.20;42.40;;;;;;5047337;28;20103;-69
2023/07/09 12:41:28;;;;;;;6.55;4.00;;;36.20;42.70;;;;;;5051269;28;20104;-69
2023/07/09 12:43:55;;;;;;;7.13;3.40;;;36.00;42.80;;;;;;5048907;28;20021;-67
2023/07/09 12:46:25;;;;;;;4.25;3.40;;;35.90;43.10;;;;;;5061443;28;20021;-68
2023/07/09 12:48:50;;;;;;;4.85;3.38;;;35.80;43.60;;;;;;5045653;28;20025;-68
2023/07/09 12:51:21;;;;;;;6.50;4.10;;;35.80;43.50;;;;;;5050112;28;20032;-68
2023/07/09 12:53:47;;;;;;;;;;;35.70;43.30;;;;;;5048602;28;20017;-68
2023/07/09 12:56:15;;;;;;;5.43;3.42;;;35.50;43.60;;;;;;5045793;28;19924;-68